sensor_id;sensor_type;location;lat;lon;timestamp;P1;durP1;ratioP1;P2;durP2;ratioP2
55134;SDS011;41031;44.750;11.308;2023-05-27T00:00:59;19.90;;;13.30;;
55134;SDS011;41031;44.750;11.308;2023-05-27T00:03:26;13.97;;;12.57;;
55134;SDS011;41031;44.750;11.308;2023-05-27T00:05:53;14.60;;;12.83;;
55134;SDS011;41031;44.750;11.308;2023-05-27T00:08:22;16.73;;;13.17;;
55134;SDS011;41031;44.750;11.308;2023-05-27T00:10:51;17.03;;;13.40;;
55134;SDS011;41031;44.750;11.308;2023-05-27T00:13:18;21.97;;;12.77;;
55134;SDS011;41031;44.750;11.308;2023-05-27T00:15:45;14.33;;;11.27;;
55134;SDS011;41031;44.750;11.308;2023-05-27T00:18:12;20.27;;;12.40;;
55134;SDS011;41031;44.750;11.308;2023-05-27T00:20:40;16.87;;;12.80;;
55134;SDS011;41031;44.750;11.308;2023-05-27T00:23:07;15.00;;;13.37;;
55134;SDS011;41031;44.750;11.308;2023-05-27T00:25:35;19.10;;;13.00;;
55134;SDS011;41031;44.750;11.308;2023-05-27T00:28:02;16.70;;;13.27;;
55134;SDS011;41031;44.750;11.308;2023-05-27T00:30:29;18.90;;;12.67;;
55134;SDS011;41031;44.750;11.308;2023-05-27T00:32:57;17.57;;;14.13;;
55134;SDS011;41031;44.750;11.308;2023-05-27T00:35:24;14.70;;;13.20;;
55134;SDS011;41031;44.750;11.308;2023-05-27T00:37:52;15.87;;;13.27;;
55134;SDS011;41031;44.750;11.308;2023-05-27T00:40:20;13.23;;;11.93;;
55134;SDS011;41031;44.750;11.308;2023-05-27T00:42:49;14.67;;;12.67;;
55134;SDS011;41031;44.750;11.308;2023-05-27T00:45:17;14.37;;;12.77;;
55134;SDS011;41031;44.750;11.308;2023-05-27T00:47:44;15.93;;;12.33;;
55134;SDS011;41031;44.750;11.308;2023-05-27T00:50:12;17.60;;;10.87;;
55134;SDS011;41031;44.750;11.308;2023-05-27T00:52:41;17.63;;;11.57;;
55134;SDS011;41031;44.750;11.308;2023-05-27T00:55:10;21.70;;;12.17;;
55134;SDS011;41031;44.750;11.308;2023-05-27T00:57:37;20.10;;;13.50;;
55134;SDS011;41031;44.750;11.308;2023-05-27T01:00:05;16.83;;;15.10;;
55134;SDS011;41031;44.750;11.308;2023-05-27T01:02:42;19.20;;;17.03;;
55134;SDS011;41031;44.750;11.308;2023-05-27T01:05:10;21.50;;;16.60;;
55134;SDS011;41031;44.750;11.308;2023-05-27T01:10:31;21.43;;;16.17;;
55134;SDS011;41031;44.750;11.308;2023-05-27T01:13:58;22.10;;;16.07;;
55134;SDS011;41031;44.750;11.308;2023-05-27T01:16:16;19.07;;;12.03;;
55134;SDS011;41031;44.750;11.308;2023-05-27T01:47:48;15.03;;;11.50;;
55134;SDS011;41031;44.750;11.308;2023-05-27T01:50:15;13.00;;;10.30;;
55134;SDS011;41031;44.750;11.308;2023-05-27T01:52:43;15.23;;;11.07;;
55134;SDS011;41031;44.750;11.308;2023-05-27T01:55:10;11.13;;;9.27;;
55134;SDS011;41031;44.750;11.308;2023-05-27T01:57:38;8.93;;;8.13;;
55134;SDS011;41031;44.750;11.308;2023-05-27T02:00:07;9.93;;;8.57;;
55134;SDS011;41031;44.750;11.308;2023-05-27T02:02:43;11.23;;;8.93;;
55134;SDS011;41031;44.750;11.308;2023-05-27T02:05:13;12.20;;;8.67;;
55134;SDS011;41031;44.750;11.308;2023-05-27T02:07:41;12.03;;;8.20;;
55134;SDS011;41031;44.750;11.308;2023-05-27T02:10:08;9.97;;;7.30;;
55134;SDS011;41031;44.750;11.308;2023-05-27T02:12:36;13.40;;;8.80;;
55134;SDS011;41031;44.750;11.308;2023-05-27T02:15:04;10.13;;;8.30;;
55134;SDS011;41031;44.750;11.308;2023-05-27T02:17:32;11.10;;;8.50;;
55134;SDS011;41031;44.750;11.308;2023-05-27T02:19:59;8.70;;;7.80;;
55134;SDS011;41031;44.750;11.308;2023-05-27T02:22:26;8.97;;;7.37;;
55134;SDS011;41031;44.750;11.308;2023-05-27T02:24:54;10.53;;;8.57;;
55134;SDS011;41031;44.750;11.308;2023-05-27T02:27:21;10.27;;;8.70;;
55134;SDS011;41031;44.750;11.308;2023-05-27T02:29:48;11.20;;;8.17;;
55134;SDS011;41031;44.750;11.308;2023-05-27T02:32:15;13.20;;;8.97;;
55134;SDS011;41031;44.750;11.308;2023-05-27T02:34:43;10.40;;;8.90;;
55134;SDS011;41031;44.750;11.308;2023-05-27T02:37:10;12.73;;;9.37;;
55134;SDS011;41031;44.750;11.308;2023-05-27T02:39:38;10.90;;;9.53;;
55134;SDS011;41031;44.750;11.308;2023-05-27T02:42:06;11.53;;;9.90;;
55134;SDS011;41031;44.750;11.308;2023-05-27T02:44:34;13.07;;;9.80;;
55134;SDS011;41031;44.750;11.308;2023-05-27T02:47:01;14.43;;;10.33;;
55134;SDS011;41031;44.750;11.308;2023-05-27T02:49:28;18.43;;;10.00;;
55134;SDS011;41031;44.750;11.308;2023-05-27T02:51:56;14.67;;;10.07;;
55134;SDS011;41031;44.750;11.308;2023-05-27T02:54:23;12.20;;;9.83;;
55134;SDS011;41031;44.750;11.308;2023-05-27T02:56:50;14.10;;;9.80;;
55134;SDS011;41031;44.750;11.308;2023-05-27T02:59:17;13.30;;;9.83;;
55134;SDS011;41031;44.750;11.308;2023-05-27T03:01:44;16.70;;;9.97;;
55134;SDS011;41031;44.750;11.308;2023-05-27T03:04:11;16.33;;;10.87;;
55134;SDS011;41031;44.750;11.308;2023-05-27T03:06:38;12.47;;;10.37;;
55134;SDS011;41031;44.750;11.308;2023-05-27T03:09:08;11.37;;;9.57;;
55134;SDS011;41031;44.750;11.308;2023-05-27T03:11:36;13.53;;;9.93;;
55134;SDS011;41031;44.750;11.308;2023-05-27T03:14:03;14.87;;;10.37;;
55134;SDS011;41031;44.750;11.308;2023-05-27T03:16:30;10.43;;;9.30;;
55134;SDS011;41031;44.750;11.308;2023-05-27T03:18:58;16.20;;;10.73;;
55134;SDS011;41031;44.750;11.308;2023-05-27T03:21:25;13.10;;;9.77;;
55134;SDS011;41031;44.750;11.308;2023-05-27T03:23:52;15.77;;;9.00;;
55134;SDS011;41031;44.750;11.308;2023-05-27T03:26:19;14.90;;;9.07;;
55134;SDS011;41031;44.750;11.308;2023-05-27T03:28:49;18.67;;;8.73;;
55134;SDS011;41031;44.750;11.308;2023-05-27T03:31:16;16.60;;;10.07;;
55134;SDS011;41031;44.750;11.308;2023-05-27T03:34:04;14.33;;;9.90;;
55134;SDS011;41031;44.750;11.308;2023-05-27T03:36:31;17.33;;;9.43;;
55134;SDS011;41031;44.750;11.308;2023-05-27T03:38:58;18.57;;;10.37;;
55134;SDS011;41031;44.750;11.308;2023-05-27T03:41:27;12.20;;;10.00;;
55134;SDS011;41031;44.750;11.308;2023-05-27T03:43:54;13.03;;;10.23;;
55134;SDS011;41031;44.750;11.308;2023-05-27T03:46:22;16.57;;;10.60;;
55134;SDS011;41031;44.750;11.308;2023-05-27T03:48:49;17.40;;;11.00;;
55134;SDS011;41031;44.750;11.308;2023-05-27T03:51:16;16.40;;;10.83;;
55134;SDS011;41031;44.750;11.308;2023-05-27T03:53:43;15.60;;;10.53;;
55134;SDS011;41031;44.750;11.308;2023-05-27T03:56:11;17.13;;;10.63;;
55134;SDS011;41031;44.750;11.308;2023-05-27T03:58:38;19.23;;;11.70;;
55134;SDS011;41031;44.750;11.308;2023-05-27T04:01:05;15.90;;;9.50;;
55134;SDS011;41031;44.750;11.308;2023-05-27T04:03:32;15.83;;;9.33;;
55134;SDS011;41031;44.750;11.308;2023-05-27T04:06:00;14.93;;;9.53;;
55134;SDS011;41031;44.750;11.308;2023-05-27T04:08:27;17.70;;;9.17;;
55134;SDS011;41031;44.750;11.308;2023-05-27T04:10:54;11.17;;;7.77;;
55134;SDS011;41031;44.750;11.308;2023-05-27T04:13:23;10.80;;;7.57;;
55134;SDS011;41031;44.750;11.308;2023-05-27T04:15:51;9.97;;;6.60;;
55134;SDS011;41031;44.750;11.308;2023-05-27T04:18:19;9.87;;;7.07;;
55134;SDS011;41031;44.750;11.308;2023-05-27T04:20:46;8.90;;;6.30;;
55134;SDS011;41031;44.750;11.308;2023-05-27T04:23:15;11.00;;;6.33;;
55134;SDS011;41031;44.750;11.308;2023-05-27T04:25:42;9.37;;;6.03;;
55134;SDS011;41031;44.750;11.308;2023-05-27T04:28:11;7.37;;;6.27;;
55134;SDS011;41031;44.750;11.308;2023-05-27T04:30:42;7.70;;;5.33;;
55134;SDS011;41031;44.750;11.308;2023-05-27T04:33:14;9.00;;;6.00;;
55134;SDS011;41031;44.750;11.308;2023-05-27T04:35:43;7.57;;;6.17;;
55134;SDS011;41031;44.750;11.308;2023-05-27T04:38:11;10.13;;;6.17;;
55134;SDS011;41031;44.750;11.308;2023-05-27T04:40:54;6.87;;;5.67;;
55134;SDS011;41031;44.750;11.308;2023-05-27T04:43:42;11.47;;;5.63;;
55134;SDS011;41031;44.750;11.308;2023-05-27T04:46:12;8.03;;;5.47;;
55134;SDS011;41031;44.750;11.308;2023-05-27T04:48:41;12.17;;;5.57;;
55134;SDS011;41031;44.750;11.308;2023-05-27T04:51:11;8.30;;;5.20;;
55134;SDS011;41031;44.750;11.308;2023-05-27T04:53:42;5.90;;;5.30;;
55134;SDS011;41031;44.750;11.308;2023-05-27T04:56:09;9.83;;;5.00;;
55134;SDS011;41031;44.750;11.308;2023-05-27T04:58:39;5.83;;;5.10;;
55134;SDS011;41031;44.750;11.308;2023-05-27T05:01:06;6.13;;;4.87;;
55134;SDS011;41031;44.750;11.308;2023-05-27T05:03:49;12.60;;;6.83;;
55134;SDS011;41031;44.750;11.308;2023-05-27T05:06:29;17.17;;;5.67;;
55134;SDS011;41031;44.750;11.308;2023-05-27T05:08:56;8.20;;;5.37;;
55134;SDS011;41031;44.750;11.308;2023-05-27T05:11:25;6.93;;;5.43;;
55134;SDS011;41031;44.750;11.308;2023-05-27T05:13:53;10.27;;;5.00;;
55134;SDS011;41031;44.750;11.308;2023-05-27T05:16:20;8.67;;;4.70;;
55134;SDS011;41031;44.750;11.308;2023-05-27T05:18:47;10.87;;;4.60;;
55134;SDS011;41031;44.750;11.308;2023-05-27T05:21:14;6.97;;;4.87;;
55134;SDS011;41031;44.750;11.308;2023-05-27T05:23:41;8.77;;;4.80;;
55134;SDS011;41031;44.750;11.308;2023-05-27T05:26:09;7.53;;;4.33;;
55134;SDS011;41031;44.750;11.308;2023-05-27T05:28:39;5.87;;;4.37;;
55134;SDS011;41031;44.750;11.308;2023-05-27T05:31:08;5.17;;;4.13;;
55134;SDS011;41031;44.750;11.308;2023-05-27T05:33:35;8.83;;;5.03;;
55134;SDS011;41031;44.750;11.308;2023-05-27T05:36:03;9.13;;;4.47;;
55134;SDS011;41031;44.750;11.308;2023-05-27T05:38:43;7.90;;;4.43;;
55134;SDS011;41031;44.750;11.308;2023-05-27T05:41:11;7.07;;;5.40;;
55134;SDS011;41031;44.750;11.308;2023-05-27T05:43:38;16.67;;;4.93;;
55134;SDS011;41031;44.750;11.308;2023-05-27T05:46:05;6.73;;;5.13;;
55134;SDS011;41031;44.750;11.308;2023-05-27T05:48:33;8.10;;;4.87;;
55134;SDS011;41031;44.750;11.308;2023-05-27T05:51:01;8.93;;;4.90;;
55134;SDS011;41031;44.750;11.308;2023-05-27T05:53:29;9.57;;;5.40;;
55134;SDS011;41031;44.750;11.308;2023-05-27T05:55:58;10.03;;;5.30;;
55134;SDS011;41031;44.750;11.308;2023-05-27T05:58:25;7.67;;;5.53;;
55134;SDS011;41031;44.750;11.308;2023-05-27T06:00:52;8.20;;;5.17;;
55134;SDS011;41031;44.750;11.308;2023-05-27T06:03:35;7.47;;;4.60;;
55134;SDS011;41031;44.750;11.308;2023-05-27T06:06:06;7.73;;;5.40;;
55134;SDS011;41031;44.750;11.308;2023-05-27T06:08:50;6.23;;;5.60;;
55134;SDS011;41031;44.750;11.308;2023-05-27T06:11:17;6.70;;;4.57;;
55134;SDS011;41031;44.750;11.308;2023-05-27T06:13:44;7.87;;;5.33;;
55134;SDS011;41031;44.750;11.308;2023-05-27T06:16:15;8.40;;;5.37;;
55134;SDS011;41031;44.750;11.308;2023-05-27T06:18:43;5.10;;;4.20;;
55134;SDS011;41031;44.750;11.308;2023-05-27T06:21:13;7.17;;;4.90;;
55134;SDS011;41031;44.750;11.308;2023-05-27T06:24:06;6.70;;;4.60;;
55134;SDS011;41031;44.750;11.308;2023-05-27T06:26:37;6.13;;;5.20;;
55134;SDS011;41031;44.750;11.308;2023-05-27T06:29:04;8.17;;;5.73;;
55134;SDS011;41031;44.750;11.308;2023-05-27T06:31:31;8.97;;;4.60;;
55134;SDS011;41031;44.750;11.308;2023-05-27T06:33:59;8.87;;;5.23;;
55134;SDS011;41031;44.750;11.308;2023-05-27T06:36:26;4.87;;;4.37;;
55134;SDS011;41031;44.750;11.308;2023-05-27T06:38:54;6.43;;;4.90;;
55134;SDS011;41031;44.750;11.308;2023-05-27T06:41:22;6.17;;;4.97;;
55134;SDS011;41031;44.750;11.308;2023-05-27T06:44:09;7.10;;;4.77;;
55134;SDS011;41031;44.750;11.308;2023-05-27T06:46:52;7.87;;;4.93;;
55134;SDS011;41031;44.750;11.308;2023-05-27T06:49:28;6.63;;;4.77;;
55134;SDS011;41031;44.750;11.308;2023-05-27T06:51:58;7.37;;;4.50;;
55134;SDS011;41031;44.750;11.308;2023-05-27T06:54:27;6.73;;;4.40;;
55134;SDS011;41031;44.750;11.308;2023-05-27T06:57:10;5.50;;;4.30;;
55134;SDS011;41031;44.750;11.308;2023-05-27T06:59:50;5.70;;;4.93;;
55134;SDS011;41031;44.750;11.308;2023-05-27T07:02:17;5.23;;;4.57;;
55134;SDS011;41031;44.750;11.308;2023-05-27T07:04:44;7.67;;;5.13;;
55134;SDS011;41031;44.750;11.308;2023-05-27T07:07:11;5.77;;;4.70;;
55134;SDS011;41031;44.750;11.308;2023-05-27T07:09:38;6.27;;;5.03;;
55134;SDS011;41031;44.750;11.308;2023-05-27T07:12:05;9.87;;;5.30;;
55134;SDS011;41031;44.750;11.308;2023-05-27T07:14:49;7.23;;;4.47;;
55134;SDS011;41031;44.750;11.308;2023-05-27T07:17:17;8.17;;;5.80;;
55134;SDS011;41031;44.750;11.308;2023-05-27T07:19:45;6.93;;;5.23;;
55134;SDS011;41031;44.750;11.308;2023-05-27T07:22:16;18.17;;;5.80;;
55134;SDS011;41031;44.750;11.308;2023-05-27T07:24:44;7.67;;;4.90;;
55134;SDS011;41031;44.750;11.308;2023-05-27T07:27:11;7.43;;;5.30;;
55134;SDS011;41031;44.750;11.308;2023-05-27T07:29:44;4.60;;;4.00;;
55134;SDS011;41031;44.750;11.308;2023-05-27T07:32:29;5.77;;;4.70;;
55134;SDS011;41031;44.750;11.308;2023-05-27T07:34:57;6.83;;;4.40;;
55134;SDS011;41031;44.750;11.308;2023-05-27T07:37:25;7.07;;;4.40;;
55134;SDS011;41031;44.750;11.308;2023-05-27T07:39:53;9.67;;;5.27;;
55134;SDS011;41031;44.750;11.308;2023-05-27T07:42:20;6.63;;;5.03;;
55134;SDS011;41031;44.750;11.308;2023-05-27T07:44:47;6.07;;;4.90;;
55134;SDS011;41031;44.750;11.308;2023-05-27T07:47:14;7.73;;;5.17;;
55134;SDS011;41031;44.750;11.308;2023-05-27T07:49:42;5.70;;;4.40;;
55134;SDS011;41031;44.750;11.308;2023-05-27T07:52:32;9.53;;;4.93;;
55134;SDS011;41031;44.750;11.308;2023-05-27T07:55:03;5.70;;;5.10;;
55134;SDS011;41031;44.750;11.308;2023-05-27T07:57:31;7.60;;;5.23;;
55134;SDS011;41031;44.750;11.308;2023-05-27T07:59:58;8.33;;;4.70;;
55134;SDS011;41031;44.750;11.308;2023-05-27T08:02:40;7.37;;;4.60;;
55134;SDS011;41031;44.750;11.308;2023-05-27T08:05:09;5.33;;;4.77;;
55134;SDS011;41031;44.750;11.308;2023-05-27T08:08:12;6.10;;;4.83;;
55134;SDS011;41031;44.750;11.308;2023-05-27T08:10:59;5.80;;;4.87;;
55134;SDS011;41031;44.750;11.308;2023-05-27T08:13:44;9.73;;;5.70;;
55134;SDS011;41031;44.750;11.308;2023-05-27T08:16:35;9.57;;;6.63;;
55134;SDS011;41031;44.750;11.308;2023-05-27T08:19:12;7.63;;;5.73;;
55134;SDS011;41031;44.750;11.308;2023-05-27T08:21:57;10.33;;;5.63;;
55134;SDS011;41031;44.750;11.308;2023-05-27T08:24:51;8.90;;;6.87;;
55134;SDS011;41031;44.750;11.308;2023-05-27T08:27:46;8.77;;;6.20;;
55134;SDS011;41031;44.750;11.308;2023-05-27T08:30:30;8.73;;;6.40;;
55134;SDS011;41031;44.750;11.308;2023-05-27T08:33:04;7.87;;;6.57;;
55134;SDS011;41031;44.750;11.308;2023-05-27T08:35:32;8.63;;;6.43;;
55134;SDS011;41031;44.750;11.308;2023-05-27T08:37:59;10.07;;;6.20;;
55134;SDS011;41031;44.750;11.308;2023-05-27T08:40:31;9.83;;;5.40;;
55134;SDS011;41031;44.750;11.308;2023-05-27T08:42:59;7.57;;;6.03;;
55134;SDS011;41031;44.750;11.308;2023-05-27T08:45:26;9.30;;;6.70;;
55134;SDS011;41031;44.750;11.308;2023-05-27T08:47:54;11.20;;;6.37;;
55134;SDS011;41031;44.750;11.308;2023-05-27T08:50:28;7.07;;;6.10;;
55134;SDS011;41031;44.750;11.308;2023-05-27T08:52:55;8.83;;;6.47;;
55134;SDS011;41031;44.750;11.308;2023-05-27T08:55:24;8.53;;;5.90;;
55134;SDS011;41031;44.750;11.308;2023-05-27T08:57:58;6.90;;;5.60;;
55134;SDS011;41031;44.750;11.308;2023-05-27T09:00:28;9.80;;;5.90;;
55134;SDS011;41031;44.750;11.308;2023-05-27T09:03:02;10.53;;;6.37;;
55134;SDS011;41031;44.750;11.308;2023-05-27T09:05:32;7.60;;;6.07;;
55134;SDS011;41031;44.750;11.308;2023-05-27T09:07:59;10.40;;;6.20;;
55134;SDS011;41031;44.750;11.308;2023-05-27T09:10:39;8.03;;;6.20;;
55134;SDS011;41031;44.750;11.308;2023-05-27T09:13:08;7.97;;;5.70;;
55134;SDS011;41031;44.750;11.308;2023-05-27T09:15:35;10.30;;;5.83;;
55134;SDS011;41031;44.750;11.308;2023-05-27T09:18:04;7.67;;;6.53;;
55134;SDS011;41031;44.750;11.308;2023-05-27T09:20:31;8.00;;;5.80;;
55134;SDS011;41031;44.750;11.308;2023-05-27T09:22:59;7.43;;;5.57;;
55134;SDS011;41031;44.750;11.308;2023-05-27T09:25:29;8.97;;;6.53;;
55134;SDS011;41031;44.750;11.308;2023-05-27T09:27:56;7.23;;;6.23;;
55134;SDS011;41031;44.750;11.308;2023-05-27T09:30:24;8.07;;;6.30;;
55134;SDS011;41031;44.750;11.308;2023-05-27T09:32:59;13.50;;;5.97;;
55134;SDS011;41031;44.750;11.308;2023-05-27T09:35:28;8.13;;;6.57;;
55134;SDS011;41031;44.750;11.308;2023-05-27T09:37:54;7.93;;;6.57;;
55134;SDS011;41031;44.750;11.308;2023-05-27T09:40:32;13.37;;;6.40;;
55134;SDS011;41031;44.750;11.308;2023-05-27T09:43:01;8.97;;;6.17;;
55134;SDS011;41031;44.750;11.308;2023-05-27T09:45:29;8.93;;;5.67;;
55134;SDS011;41031;44.750;11.308;2023-05-27T09:47:56;11.77;;;6.50;;
55134;SDS011;41031;44.750;11.308;2023-05-27T09:50:26;6.60;;;5.87;;
55134;SDS011;41031;44.750;11.308;2023-05-27T09:52:54;7.60;;;6.17;;
55134;SDS011;41031;44.750;11.308;2023-05-27T09:55:37;11.83;;;7.23;;
55134;SDS011;41031;44.750;11.308;2023-05-27T09:58:06;7.63;;;6.37;;
55134;SDS011;41031;44.750;11.308;2023-05-27T10:00:33;6.77;;;6.03;;
55134;SDS011;41031;44.750;11.308;2023-05-27T10:03:01;10.83;;;6.90;;
55134;SDS011;41031;44.750;11.308;2023-05-27T10:05:30;6.30;;;5.53;;
55134;SDS011;41031;44.750;11.308;2023-05-27T10:07:57;8.87;;;6.37;;
55134;SDS011;41031;44.750;11.308;2023-05-27T10:10:45;10.03;;;5.67;;
55134;SDS011;41031;44.750;11.308;2023-05-27T10:13:13;8.03;;;6.40;;
55134;SDS011;41031;44.750;11.308;2023-05-27T10:15:46;11.03;;;6.33;;
55134;SDS011;41031;44.750;11.308;2023-05-27T10:18:23;7.67;;;6.23;;
55134;SDS011;41031;44.750;11.308;2023-05-27T10:20:50;7.33;;;5.73;;
55134;SDS011;41031;44.750;11.308;2023-05-27T10:23:18;8.83;;;6.47;;
55134;SDS011;41031;44.750;11.308;2023-05-27T10:25:52;9.47;;;6.90;;
55134;SDS011;41031;44.750;11.308;2023-05-27T10:28:24;10.67;;;6.10;;
55134;SDS011;41031;44.750;11.308;2023-05-27T10:30:52;7.20;;;6.50;;
55134;SDS011;41031;44.750;11.308;2023-05-27T10:33:29;6.07;;;5.47;;
55134;SDS011;41031;44.750;11.308;2023-05-27T10:36:02;6.70;;;5.93;;
55134;SDS011;41031;44.750;11.308;2023-05-27T10:38:34;7.83;;;6.23;;
55134;SDS011;41031;44.750;11.308;2023-05-27T10:41:02;6.80;;;6.10;;
55134;SDS011;41031;44.750;11.308;2023-05-27T10:43:31;8.10;;;5.70;;
55134;SDS011;41031;44.750;11.308;2023-05-27T10:46:02;9.43;;;5.93;;
55134;SDS011;41031;44.750;11.308;2023-05-27T10:48:30;6.97;;;6.27;;
55134;SDS011;41031;44.750;11.308;2023-05-27T10:50:59;7.60;;;5.90;;
55134;SDS011;41031;44.750;11.308;2023-05-27T10:53:27;6.60;;;5.13;;
55134;SDS011;41031;44.750;11.308;2023-05-27T10:55:57;7.23;;;5.67;;
55134;SDS011;41031;44.750;11.308;2023-05-27T10:58:25;6.67;;;5.93;;
55134;SDS011;41031;44.750;11.308;2023-05-27T11:00:53;8.47;;;6.17;;
55134;SDS011;41031;44.750;11.308;2023-05-27T11:03:22;9.00;;;6.33;;
55134;SDS011;41031;44.750;11.308;2023-05-27T11:06:03;6.83;;;6.03;;
55134;SDS011;41031;44.750;11.308;2023-05-27T11:08:34;10.23;;;6.63;;
55134;SDS011;41031;44.750;11.308;2023-05-27T11:11:02;8.47;;;6.80;;
55134;SDS011;41031;44.750;11.308;2023-05-27T11:16:03;11.33;;;6.50;;
55134;SDS011;41031;44.750;11.308;2023-05-27T11:21:09;7.67;;;5.90;;
55134;SDS011;41031;44.750;11.308;2023-05-27T11:23:38;10.77;;;5.93;;
55134;SDS011;41031;44.750;11.308;2023-05-27T11:26:13;9.50;;;7.07;;
55134;SDS011;41031;44.750;11.308;2023-05-27T11:28:44;6.70;;;6.10;;
55134;SDS011;41031;44.750;11.308;2023-05-27T11:31:13;7.07;;;6.37;;
55134;SDS011;41031;44.750;11.308;2023-05-27T11:33:41;7.40;;;6.70;;
55134;SDS011;41031;44.750;11.308;2023-05-27T11:36:13;8.00;;;6.20;;
55134;SDS011;41031;44.750;11.308;2023-05-27T11:41:20;7.27;;;6.40;;
55134;SDS011;41031;44.750;11.308;2023-05-27T11:43:54;6.67;;;5.80;;
55134;SDS011;41031;44.750;11.308;2023-05-27T11:46:21;6.57;;;5.97;;
55134;SDS011;41031;44.750;11.308;2023-05-27T11:48:48;6.53;;;5.73;;
55134;SDS011;41031;44.750;11.308;2023-05-27T11:51:16;7.10;;;5.80;;
55134;SDS011;41031;44.750;11.308;2023-05-27T11:53:46;6.43;;;5.83;;
55134;SDS011;41031;44.750;11.308;2023-05-27T11:56:13;7.00;;;6.23;;
55134;SDS011;41031;44.750;11.308;2023-05-27T11:58:41;9.23;;;5.90;;
55134;SDS011;41031;44.750;11.308;2023-05-27T12:01:09;8.57;;;6.70;;
55134;SDS011;41031;44.750;11.308;2023-05-27T12:03:36;7.77;;;5.33;;
55134;SDS011;41031;44.750;11.308;2023-05-27T12:06:03;8.90;;;6.10;;
55134;SDS011;41031;44.750;11.308;2023-05-27T12:08:30;7.00;;;5.80;;
55134;SDS011;41031;44.750;11.308;2023-05-27T12:10:57;5.80;;;5.00;;
55134;SDS011;41031;44.750;11.308;2023-05-27T12:13:24;7.43;;;5.57;;
55134;SDS011;41031;44.750;11.308;2023-05-27T12:15:52;6.53;;;5.77;;
55134;SDS011;41031;44.750;11.308;2023-05-27T12:18:19;6.43;;;5.77;;
55134;SDS011;41031;44.750;11.308;2023-05-27T12:20:46;9.53;;;5.87;;
55134;SDS011;41031;44.750;11.308;2023-05-27T12:23:14;7.13;;;6.23;;
55134;SDS011;41031;44.750;11.308;2023-05-27T12:25:41;7.23;;;6.17;;
55134;SDS011;41031;44.750;11.308;2023-05-27T12:28:09;12.50;;;5.83;;
55134;SDS011;41031;44.750;11.308;2023-05-27T12:30:36;7.77;;;6.23;;
55134;SDS011;41031;44.750;11.308;2023-05-27T12:33:04;6.10;;;5.47;;
55134;SDS011;41031;44.750;11.308;2023-05-27T12:35:32;6.20;;;5.60;;
55134;SDS011;41031;44.750;11.308;2023-05-27T12:38:00;7.63;;;5.63;;
55134;SDS011;41031;44.750;11.308;2023-05-27T12:40:27;7.20;;;5.67;;
55134;SDS011;41031;44.750;11.308;2023-05-27T12:42:54;8.73;;;6.30;;
55134;SDS011;41031;44.750;11.308;2023-05-27T12:45:21;6.80;;;5.90;;
55134;SDS011;41031;44.750;11.308;2023-05-27T12:47:50;6.53;;;5.53;;
55134;SDS011;41031;44.750;11.308;2023-05-27T12:50:18;7.37;;;6.30;;
55134;SDS011;41031;44.750;11.308;2023-05-27T12:52:46;6.17;;;5.33;;
55134;SDS011;41031;44.750;11.308;2023-05-27T12:55:14;6.37;;;5.67;;
55134;SDS011;41031;44.750;11.308;2023-05-27T12:57:44;7.90;;;5.83;;
55134;SDS011;41031;44.750;11.308;2023-05-27T13:00:16;6.97;;;6.27;;
55134;SDS011;41031;44.750;11.308;2023-05-27T13:02:44;6.73;;;5.70;;
55134;SDS011;41031;44.750;11.308;2023-05-27T13:05:13;8.00;;;5.57;;
55134;SDS011;41031;44.750;11.308;2023-05-27T13:07:52;5.83;;;5.23;;
55134;SDS011;41031;44.750;11.308;2023-05-27T13:10:22;6.33;;;5.67;;
55134;SDS011;41031;44.750;11.308;2023-05-27T13:12:49;9.07;;;5.53;;
55134;SDS011;41031;44.750;11.308;2023-05-27T13:15:16;6.80;;;5.70;;
55134;SDS011;41031;44.750;11.308;2023-05-27T13:17:44;7.97;;;5.80;;
55134;SDS011;41031;44.750;11.308;2023-05-27T13:20:15;7.40;;;5.80;;
55134;SDS011;41031;44.750;11.308;2023-05-27T13:22:43;6.90;;;6.20;;
55134;SDS011;41031;44.750;11.308;2023-05-27T13:25:11;10.37;;;6.33;;
55134;SDS011;41031;44.750;11.308;2023-05-27T13:27:39;6.47;;;5.70;;
55134;SDS011;41031;44.750;11.308;2023-05-27T13:30:12;7.57;;;5.33;;
55134;SDS011;41031;44.750;11.308;2023-05-27T13:32:43;9.50;;;5.53;;
55134;SDS011;41031;44.750;11.308;2023-05-27T13:35:10;8.30;;;5.93;;
55134;SDS011;41031;44.750;11.308;2023-05-27T13:37:38;7.10;;;5.33;;
55134;SDS011;41031;44.750;11.308;2023-05-27T13:40:07;7.60;;;6.13;;
55134;SDS011;41031;44.750;11.308;2023-05-27T13:42:35;8.67;;;5.60;;
55134;SDS011;41031;44.750;11.308;2023-05-27T13:45:02;7.90;;;5.50;;
55134;SDS011;41031;44.750;11.308;2023-05-27T13:47:30;9.17;;;5.30;;
55134;SDS011;41031;44.750;11.308;2023-05-27T13:49:57;8.03;;;5.60;;
55134;SDS011;41031;44.750;11.308;2023-05-27T13:52:25;10.97;;;5.40;;
55134;SDS011;41031;44.750;11.308;2023-05-27T13:54:52;8.50;;;5.50;;
55134;SDS011;41031;44.750;11.308;2023-05-27T13:57:19;8.33;;;5.97;;
55134;SDS011;41031;44.750;11.308;2023-05-27T13:59:46;5.97;;;5.23;;
55134;SDS011;41031;44.750;11.308;2023-05-27T14:02:13;6.90;;;5.90;;
55134;SDS011;41031;44.750;11.308;2023-05-27T14:04:40;8.00;;;5.33;;
55134;SDS011;41031;44.750;11.308;2023-05-27T14:07:07;8.93;;;6.20;;
55134;SDS011;41031;44.750;11.308;2023-05-27T14:09:34;6.67;;;5.97;;
55134;SDS011;41031;44.750;11.308;2023-05-27T14:12:01;7.07;;;6.07;;
55134;SDS011;41031;44.750;11.308;2023-05-27T14:14:29;8.60;;;6.50;;
55134;SDS011;41031;44.750;11.308;2023-05-27T14:16:56;11.43;;;6.03;;
55134;SDS011;41031;44.750;11.308;2023-05-27T14:19:23;8.63;;;6.10;;
55134;SDS011;41031;44.750;11.308;2023-05-27T14:21:50;6.37;;;5.50;;
55134;SDS011;41031;44.750;11.308;2023-05-27T14:24:18;9.63;;;6.10;;
55134;SDS011;41031;44.750;11.308;2023-05-27T14:26:45;7.47;;;5.47;;
55134;SDS011;41031;44.750;11.308;2023-05-27T14:29:12;7.00;;;5.40;;
55134;SDS011;41031;44.750;11.308;2023-05-27T14:31:39;6.57;;;5.50;;
55134;SDS011;41031;44.750;11.308;2023-05-27T14:34:06;9.30;;;5.87;;
55134;SDS011;41031;44.750;11.308;2023-05-27T14:36:33;6.50;;;5.73;;
55134;SDS011;41031;44.750;11.308;2023-05-27T14:39:01;7.57;;;6.00;;
55134;SDS011;41031;44.750;11.308;2023-05-27T14:41:32;7.00;;;6.07;;
55134;SDS011;41031;44.750;11.308;2023-05-27T14:43:59;8.10;;;5.77;;
55134;SDS011;41031;44.750;11.308;2023-05-27T14:46:26;7.30;;;5.30;;
55134;SDS011;41031;44.750;11.308;2023-05-27T14:48:53;6.33;;;5.03;;
55134;SDS011;41031;44.750;11.308;2023-05-27T14:51:20;6.47;;;5.87;;
55134;SDS011;41031;44.750;11.308;2023-05-27T14:53:47;9.60;;;5.67;;
55134;SDS011;41031;44.750;11.308;2023-05-27T14:56:14;8.53;;;5.77;;
55134;SDS011;41031;44.750;11.308;2023-05-27T14:58:41;9.43;;;5.53;;
55134;SDS011;41031;44.750;11.308;2023-05-27T15:01:09;7.20;;;6.17;;
55134;SDS011;41031;44.750;11.308;2023-05-27T15:03:37;6.53;;;5.93;;
55134;SDS011;41031;44.750;11.308;2023-05-27T15:06:05;7.70;;;4.83;;
55134;SDS011;41031;44.750;11.308;2023-05-27T15:08:35;6.40;;;5.10;;
55134;SDS011;41031;44.750;11.308;2023-05-27T15:11:02;8.43;;;5.33;;
55134;SDS011;41031;44.750;11.308;2023-05-27T15:13:29;5.47;;;4.97;;
55134;SDS011;41031;44.750;11.308;2023-05-27T15:15:57;6.70;;;5.17;;
55134;SDS011;41031;44.750;11.308;2023-05-27T15:18:25;7.63;;;5.10;;
55134;SDS011;41031;44.750;11.308;2023-05-27T15:20:52;6.07;;;5.03;;
55134;SDS011;41031;44.750;11.308;2023-05-27T15:23:19;9.13;;;5.53;;